Time;durP1;ratioP1;P1;durP2;ratioP2;P2;SDS_P1;SDS_P2;PMS_P1;PMS_P2;Temp;Humidity;BMP_temperature;BMP_pressure;BME280_temperature;BME280_humidity;BME280_pressure;Samples;Min_cycle;Max_cycle;Signal;HPM_P1;HPM_P2
2024/01/25 06:01:59;;;;;;;12.02;2.17;;;8.80;87.60;;;;;;4171249;23;20701;-78
2024/01/25 06:04:01;;;;;;;10.13;2.03;;;8.80;88.00;;;;;;4102781;29;20481;-76
2024/01/25 06:06:04;;;;;;;10.52;2.22;;;8.80;88.80;;;;;;4102673;29;20043;-78
2024/01/25 06:08:06;;;;;;;7.93;2.08;;;8.70;89.30;;;;;;4102743;29;20075;-78
2024/01/25 06:10:10;;;;;;;9.70;2.17;;;8.70;89.90;;;;;;4102169;29;20090;-77
2024/01/25 06:12:13;;;;;;;10.48;2.40;;;8.70;90.10;;;;;;4102368;29;20048;-79
2024/01/25 06:14:13;;;;;;;11.27;2.47;;;8.70;90.10;;;;;;4102440;29;20118;-79
2024/01/25 06:16:15;;;;;;;7.97;2.00;;;8.70;90.30;;;;;;4102433;29;20555;-77
2024/01/25 06:18:19;;;;;;;9.30;2.17;;;8.70;90.40;;;;;;4101530;28;20102;-79
2024/01/25 06:20:20;;;;;;;12.07;2.33;;;8.70;90.70;;;;;;4102372;29;20094;-79
2024/01/25 06:22:22;;;;;;;8.07;2.03;;;8.70;90.70;;;;;;4102464;29;20110;-79
2024/01/25 06:24:24;;;;;;;7.82;2.00;;;8.60;91.10;;;;;;4102176;29;20051;-80
2024/01/25 06:26:26;;;;;;;11.45;2.40;;;8.50;91.20;;;;;;4102135;29;20138;-77
2024/01/25 06:28:29;;;;;;;9.18;2.00;;;8.50;91.30;;;;;;4102742;29;20047;-78
2024/01/25 06:30:30;;;;;;;8.10;2.03;;;8.50;91.40;;;;;;4102204;29;20047;-79
2024/01/25 06:32:32;;;;;;;11.18;1.98;;;8.50;91.20;;;;;;4102298;29;20055;-78
2024/01/25 06:34:36;;;;;;;9.95;1.80;;;8.40;91.20;;;;;;4102032;29;20054;-78
2024/01/25 06:36:38;;;;;;;7.53;1.75;;;8.40;91.20;;;;;;4102231;29;20126;-80
2024/01/25 06:38:40;;;;;;;9.23;1.83;;;8.30;91.10;;;;;;4102125;29;20065;-78
2024/01/25 06:40:42;;;;;;;8.20;1.70;;;8.30;91.00;;;;;;4102279;29;20098;-76
2024/01/25 06:42:44;;;;;;;8.40;1.77;;;8.30;90.90;;;;;;4102169;29;20461;-79
2024/01/25 06:44:45;;;;;;;10.10;1.90;;;8.30;90.70;;;;;;4101996;29;20504;-77
2024/01/25 06:46:47;;;;;;;12.10;2.30;;;8.30;90.40;;;;;;4102015;29;20130;-76
2024/01/25 06:48:51;;;;;;;7.90;1.70;;;8.30;90.10;;;;;;4102073;29;20047;-78
2024/01/25 06:50:54;;;;;;;7.05;1.50;;;8.20;90.20;;;;;;4102143;29;20062;-78
2024/01/25 06:52:56;;;;;;;9.48;1.85;;;8.20;90.10;;;;;;4101610;29;20047;-78
2024/01/25 06:54:58;;;;;;;10.38;1.95;;;8.20;90.10;;;;;;4102103;29;20106;-77
2024/01/25 06:57:00;;;;;;;9.57;1.48;;;8.20;90.10;;;;;;4101920;29;20104;-79
2024/01/25 06:59:02;;;;;;;9.88;2.42;;;8.20;90.00;;;;;;4101765;29;20102;-77
2024/01/25 07:01:04;;;;;;;9.23;2.10;;;8.20;89.80;;;;;;4101809;29;20059;-78
2024/01/25 07:03:06;;;;;;;10.20;2.50;;;8.20;89.80;;;;;;4102339;29;20497;-78
2024/01/25 07:05:09;;;;;;;7.25;2.00;;;8.10;89.80;;;;;;4102809;29;20055;-77
2024/01/25 07:07:12;;;;;;;9.80;1.90;;;8.10;89.50;;;;;;4102934;29;20579;-77
2024/01/25 07:09:14;;;;;;;8.73;1.83;;;8.00;89.40;;;;;;4102097;29;20118;-78
2024/01/25 07:11:17;;;;;;;11.25;1.92;;;8.00;89.10;;;;;;4101454;29;20051;-77
2024/01/25 07:13:20;;;;;;;5.70;1.40;;;8.00;89.10;;;;;;4101371;29;20047;-78
2024/01/25 07:15:22;;;;;;;9.52;1.80;;;8.00;89.00;;;;;;4101359;29;20050;-79
2024/01/25 07:17:23;;;;;;;11.07;2.20;;;8.00;89.20;;;;;;4101483;29;20047;-79
2024/01/25 07:19:25;;;;;;;10.25;2.28;;;8.00;89.10;;;;;;4101676;29;20161;-77
2024/01/25 07:21:27;;;;;;;10.55;1.83;;;7.90;88.90;;;;;;4101393;29;20453;-78
2024/01/25 07:23:31;;;;;;;12.65;1.77;;;8.00;88.60;;;;;;4101223;29;20055;-78
2024/01/25 07:25:33;;;;;;;10.57;2.42;;;8.00;88.40;;;;;;4101543;29;20279;-78
2024/01/25 07:27:34;;;;;;;8.75;1.90;;;7.90;88.40;;;;;;4101400;29;20500;-78
2024/01/25 07:29:36;;;;;;;13.85;2.25;;;7.90;88.30;;;;;;4101064;28;20047;-78
2024/01/25 07:31:38;;;;;;;12.32;3.08;;;8.00;88.10;;;;;;4101221;29;20047;-78
2024/01/25 07:33:40;;;;;;;10.27;2.30;;;7.90;88.20;;;;;;4101246;29;20382;-78
2024/01/25 07:35:45;;;;;;;11.43;2.80;;;7.90;88.10;;;;;;4101288;29;20043;-78
2024/01/25 07:37:47;;;;;;;7.97;1.87;;;7.90;88.10;;;;;;4101381;29;20055;-79
2024/01/25 07:39:50;;;;;;;7.65;1.77;;;7.90;87.80;;;;;;4101266;29;20307;-78
2024/01/25 07:41:51;;;;;;;11.90;2.90;;;7.80;88.10;;;;;;4101334;29;20047;-78
2024/01/25 07:43:55;;;;;;;12.52;1.83;;;7.80;88.40;;;;;;4101096;29;20062;-78
2024/01/25 07:45:55;;;;;;;11.30;2.35;;;7.70;88.40;;;;;;4101106;29;20047;-78
2024/01/25 07:47:57;;;;;;;7.35;1.70;;;7.70;88.60;;;;;;4101289;29;20051;-78
2024/01/25 07:49:59;;;;;;;7.32;1.95;;;7.70;88.80;;;;;;4100772;29;20456;-80
2024/01/25 07:52:01;;;;;;;8.40;1.80;;;7.70;88.90;;;;;;4100959;29;20082;-78
2024/01/25 07:54:03;;;;;;;8.15;2.10;;;7.70;88.90;;;;;;4100954;29;20121;-79
2024/01/25 07:56:09;;;;;;;9.98;2.13;;;7.80;88.90;;;;;;4101054;29;20130;-79
2024/01/25 07:58:11;;;;;;;6.82;1.70;;;7.70;89.00;;;;;;4100745;29;20051;-77
2024/01/25 08:00:13;;;;;;;9.60;1.55;;;7.70;89.20;;;;;;4100661;29;20054;-79
2024/01/25 08:02:16;;;;;;;7.88;1.67;;;7.70;89.30;;;;;;4100592;29;20164;-78
2024/01/25 08:04:18;;;;;;;10.60;2.42;;;7.70;89.40;;;;;;4100843;29;20043;-79
2024/01/25 08:06:20;;;;;;;8.38;1.83;;;7.70;89.40;;;;;;4100992;29;20051;-78
2024/01/25 08:08:22;;;;;;;8.48;1.85;;;7.80;89.30;;;;;;4100836;29;20098;-78
2024/01/25 08:10:24;;;;;;;8.88;2.03;;;7.80;89.40;;;;;;4100747;29;20059;-79
2024/01/25 08:12:27;;;;;;;8.20;1.70;;;7.80;89.40;;;;;;4100623;29;20087;-78
2024/01/25 08:14:29;;;;;;;9.80;2.15;;;7.80;89.40;;;;;;4100721;29;20079;-77
2024/01/25 08:16:30;;;;;;;7.70;1.90;;;7.80;89.40;;;;;;4106636;29;20047;-77
2024/01/25 08:18:31;;;;;;;7.72;1.80;;;7.80;89.30;;;;;;4105524;29;20558;-78
2024/01/25 08:20:33;;;;;;;9.77;2.42;;;7.90;89.00;;;;;;4100626;29;20106;-78
2024/01/25 08:22:35;;;;;;;9.20;2.00;;;7.90;88.70;;;;;;4100778;29;20094;-78
2024/01/25 08:24:37;;;;;;;8.15;1.70;;;8.00;88.50;;;;;;4100610;29;20070;-78
2024/01/25 08:26:39;;;;;;;7.00;1.98;;;8.00;88.20;;;;;;4100512;29;20382;-76
2024/01/25 08:28:44;;;;;;;10.35;2.03;;;8.00;87.80;;;;;;4100690;29;20397;-76
2024/01/25 08:30:46;;;;;;;11.68;2.17;;;8.10;87.60;;;;;;4097997;28;20051;-79
2024/01/25 08:32:48;;;;;;;9.80;2.05;;;8.10;87.40;;;;;;4098678;29;20485;-78
2024/01/25 08:34:50;;;;;;;11.75;1.77;;;8.20;87.20;;;;;;4098764;29;20497;-79
2024/01/25 08:36:52;;;;;;;11.07;2.03;;;8.20;87.10;;;;;;4098666;29;20102;-78
2024/01/25 08:38:54;;;;;;;6.68;2.10;;;8.20;87.00;;;;;;4098737;29;20054;-78
2024/01/25 08:40:55;;;;;;;9.93;1.95;;;8.20;87.30;;;;;;4100728;28;20559;-79
2024/01/25 08:42:56;;;;;;;8.68;2.55;;;8.20;87.40;;;;;;4103605;29;20051;-76
2024/01/25 08:44:59;;;;;;;8.93;1.85;;;8.10;87.60;;;;;;4103588;28;20051;-78
2024/01/25 08:47:00;;;;;;;10.90;2.33;;;8.10;87.90;;;;;;4102044;29;20047;-78
2024/01/25 08:49:08;;;;;;;12.85;2.28;;;8.10;87.80;;;;;;4101621;29;20054;-80
2024/01/25 08:51:09;;;;;;;8.75;1.83;;;8.10;87.60;;;;;;4103735;29;20062;-78
2024/01/25 08:53:11;;;;;;;8.65;1.95;;;8.10;87.70;;;;;;4103167;29;20051;-77
2024/01/25 08:55:12;;;;;;;7.57;2.00;;;8.10;87.50;;;;;;4103487;28;20050;-79
2024/01/25 08:57:15;;;;;;;8.43;2.00;;;8.20;87.50;;;;;;4103343;29;20055;-78
2024/01/25 08:59:17;;;;;;;9.27;2.85;;;8.20;87.20;;;;;;4103617;29;20055;-78
2024/01/25 09:01:20;;;;;;;7.30;1.80;;;8.30;86.90;;;;;;4103118;28;20051;-78
2024/01/25 09:03:22;;;;;;;8.60;1.90;;;8.30;86.60;;;;;;4103227;29;20058;-79
2024/01/25 09:05:25;;;;;;;8.02;1.95;;;8.40;86.30;;;;;;4103100;29;20055;-78
2024/01/25 09:07:27;;;;;;;8.63;1.98;;;8.40;86.30;;;;;;4103351;28;20058;-77
2024/01/25 09:09:29;;;;;;;11.05;2.20;;;8.40;86.00;;;;;;4103325;29;20058;-77
2024/01/25 09:11:30;;;;;;;9.23;2.00;;;8.40;86.30;;;;;;4103339;29;20055;-78
2024/01/25 09:13:32;;;;;;;11.73;1.90;;;8.40;85.80;;;;;;4102810;28;20066;-77
2024/01/25 09:15:34;;;;;;;10.27;2.25;;;8.50;85.60;;;;;;4103085;29;20043;-77
2024/01/25 09:17:37;;;;;;;10.02;2.33;;;8.50;85.70;;;;;;4103027;28;20090;-76
2024/01/25 09:19:39;;;;;;;9.32;2.25;;;8.50;84.70;;;;;;4102979;28;20556;-75
2024/01/25 09:21:41;;;;;;;11.38;2.10;;;8.60;84.80;;;;;;4103293;28;20051;-78
2024/01/25 09:23:43;;;;;;;10.32;3.42;;;8.60;83.90;;;;;;4103505;29;20452;-78
2024/01/25 09:25:46;;;;;;;36.03;15.65;;;8.60;84.00;;;;;;4103361;28;20081;-78
2024/01/25 09:27:48;;;;;;;11.98;4.38;;;8.70;83.80;;;;;;4103036;29;20110;-78
2024/01/25 09:29:49;;;;;;;13.45;2.20;;;8.70;83.90;;;;;;4102691;29;20054;-79
2024/01/25 09:31:51;;;;;;;11.70;2.15;;;8.70;83.70;;;;;;4102979;29;20117;-79
2024/01/25 09:33:54;;;;;;;10.98;2.47;;;8.80;83.10;;;;;;4103132;29;20082;-78
2024/01/25 09:35:56;;;;;;;11.18;2.90;;;8.80;83.20;;;;;;4103032;28;20489;-78
2024/01/25 09:37:58;;;;;;;8.95;2.47;;;8.90;82.90;;;;;;4102752;28;20121;-79
2024/01/25 09:39:59;;;;;;;12.25;2.17;;;8.90;82.90;;;;;;4102288;29;20453;-80
2024/01/25 09:42:01;;;;;;;11.40;2.88;;;9.00;83.00;;;;;;4102411;28;20058;-79
2024/01/25 09:44:04;;;;;;;13.43;2.13;;;9.00;82.40;;;;;;4102782;29;20059;-78
2024/01/25 09:46:07;;;;;;;10.40;2.22;;;9.00;81.90;;;;;;4102665;29;20055;-78
2024/01/25 09:48:10;;;;;;;11.00;2.33;;;9.00;81.70;;;;;;4100718;29;20386;-78
2024/01/25 09:50:13;;;;;;;10.77;2.60;;;9.10;81.40;;;;;;4102882;29;20094;-79
2024/01/25 09:52:15;;;;;;;14.10;2.58;;;9.10;80.70;;;;;;4101929;28;20150;-79
2024/01/25 09:54:17;;;;;;;14.23;2.85;;;9.10;80.90;;;;;;4099847;29;20051;-77
2024/01/25 09:56:22;;;;;;;12.07;2.55;;;9.10;79.60;;;;;;4100192;29;20047;-77
2024/01/25 09:58:29;;;;;;;13.85;2.30;;;9.10;79.60;;;;;;4100087;29;20456;-78
2024/01/25 10:00:31;;;;;;;14.48;2.65;;;9.10;79.60;;;;;;4099910;29;20059;-77
2024/01/25 10:02:33;;;;;;;13.85;2.90;;;9.10;80.00;;;;;;4100389;29;20055;-77
2024/01/25 10:04:35;;;;;;;13.85;3.40;;;9.20;79.90;;;;;;4100120;29;20059;-77
2024/01/25 10:06:38;;;;;;;15.93;5.07;;;9.30;79.40;;;;;;4099783;29;20389;-78
2024/01/25 10:08:39;;;;;;;12.07;2.55;;;9.30;78.60;;;;;;4099758;29;20118;-79
2024/01/25 10:10:43;;;;;;;14.52;2.65;;;9.40;78.30;;;;;;4100622;29;20055;-75
2024/01/25 10:12:45;;;;;;;14.85;2.88;;;9.50;78.50;;;;;;4100680;29;20058;-79
2024/01/25 10:14:46;;;;;;;15.40;2.78;;;9.40;76.90;;;;;;4099790;29;20051;-80
2024/01/25 10:16:48;;;;;;;15.10;2.67;;;9.50;77.40;;;;;;4099713;29;20361;-79
2024/01/25 10:18:51;;;;;;;13.82;2.95;;;9.60;77.30;;;;;;4099775;29;20051;-78
2024/01/25 10:20:55;;;;;;;12.40;2.30;;;9.60;77.80;;;;;;4100089;29;20050;-79
2024/01/25 10:22:58;;;;;;;11.20;2.65;;;9.70;77.20;;;;;;4099614;29;20086;-78
2024/01/25 10:24:59;;;;;;;15.63;2.75;;;9.80;77.60;;;;;;4099430;29;20055;-79
2024/01/25 10:27:01;;;;;;;11.98;2.38;;;9.80;77.30;;;;;;4099568;29;20051;-79
2024/01/25 10:29:03;;;;;;;17.63;3.05;;;9.70;76.50;;;;;;4099753;29;20051;-79
2024/01/25 10:31:06;;;;;;;14.88;3.03;;;9.80;76.10;;;;;;4099552;29;20074;-78
2024/01/25 10:33:11;;;;;;;16.35;3.75;;;9.80;76.10;;;;;;4099307;29;20054;-78
2024/01/25 10:35:15;;;;;;;11.98;2.47;;;9.90;75.80;;;;;;4099031;29;20058;-80
2024/01/25 10:37:18;;;;;;;13.73;3.20;;;9.90;74.90;;;;;;4099387;29;20051;-77
2024/01/25 10:39:22;;;;;;;9.57;2.25;;;9.90;74.80;;;;;;4099648;29;20057;-77
2024/01/25 10:41:26;;;;;;;15.85;2.88;;;10.00;74.20;;;;;;4099312;29;20043;-77
2024/01/25 10:43:28;;;;;;;14.15;3.03;;;10.00;74.50;;;;;;4099496;29;20074;-78
2024/01/25 10:45:30;;;;;;;11.90;2.63;;;10.10;74.00;;;;;;4099170;29;20055;-78
2024/01/25 10:47:35;;;;;;;13.50;2.25;;;10.20;73.80;;;;;;4097657;29;20055;-78
2024/01/25 10:49:37;;;;;;;13.13;2.67;;;10.20;73.80;;;;;;4099306;29;20106;-77
2024/01/25 10:51:40;;;;;;;12.07;2.35;;;10.20;73.50;;;;;;4099549;29;20054;-77
2024/01/25 10:53:43;;;;;;;12.82;2.25;;;10.20;73.80;;;;;;4099265;29;20086;-78
2024/01/25 10:55:46;;;;;;;15.60;2.90;;;10.30;74.00;;;;;;4099489;29;20055;-79
2024/01/25 10:57:48;;;;;;;12.95;3.10;;;10.30;73.70;;;;;;4099436;29;20079;-79
2024/01/25 10:59:51;;;;;;;8.93;2.63;;;10.30;72.60;;;;;;4099709;29;20051;-76
2024/01/25 11:01:55;;;;;;;13.35;2.75;;;10.30;71.90;;;;;;4099208;29;20067;-79
2024/01/25 11:03:57;;;;;;;15.15;2.90;;;10.40;72.40;;;;;;4098810;28;20051;-79
2024/01/25 11:06:09;;;;;;;13.50;2.63;;;10.50;71.70;;;;;;4099115;29;20047;-78
2024/01/25 11:08:19;;;;;;;20.73;6.90;;;10.60;71.50;;;;;;4099344;29;20497;-78
2024/01/25 11:10:23;;;;;;;15.23;3.70;;;10.70;71.60;;;;;;4099019;29;20832;-77
2024/01/25 11:12:26;;;;;;;12.65;2.30;;;10.70;70.90;;;;;;4099127;29;20468;-79
2024/01/25 11:14:28;;;;;;;17.05;2.63;;;10.70;70.70;;;;;;4099048;29;20409;-79
2024/01/25 11:16:34;;;;;;;12.20;2.63;;;10.50;70.40;;;;;;4099242;29;20047;-78
2024/01/25 11:18:36;;;;;;;;;;;10.50;70.80;;;;;;4099461;29;20083;-78
2024/01/25 11:20:38;;;;;;;13.82;2.40;;;10.50;70.30;;;;;;4098854;29;19922;-79
2024/01/25 11:22:45;;;;;;;11.18;2.10;;;10.50;70.80;;;;;;4099055;29;20046;-80
2024/01/25 11:24:48;;;;;;;10.80;2.28;;;10.60;70.90;;;;;;4099020;29;20047;-78
2024/01/25 11:26:51;;;;;;;11.90;2.30;;;10.70;70.20;;;;;;4099559;29;20476;-79
2024/01/25 11:28:54;;;;;;;12.77;2.30;;;10.70;69.50;;;;;;4098864;29;20114;-78
2024/01/25 11:30:55;;;;;;;13.57;2.33;;;10.70;69.40;;;;;;4099048;29;20062;-80
2024/01/25 11:32:57;;;;;;;10.65;2.25;;;10.80;67.90;;;;;;4099201;29;20051;-80
2024/01/25 11:34:58;;;;;;;10.52;2.00;;;10.90;68.40;;;;;;4098895;29;20445;-78
2024/01/25 11:37:00;;;;;;;9.65;2.03;;;10.90;67.70;;;;;;4098679;29;20572;-80
2024/01/25 11:39:02;;;;;;;14.02;2.50;;;11.00;68.10;;;;;;4099245;29;20059;-80
2024/01/25 11:41:04;;;;;;;9.35;2.05;;;10.80;67.90;;;;;;4098863;29;20051;-80
2024/01/25 11:43:10;;;;;;;8.93;2.22;;;10.90;67.90;;;;;;4098919;29;20059;-78
2024/01/25 11:45:14;;;;;;;12.77;2.10;;;10.80;67.60;;;;;;4098427;29;20542;-78
2024/01/25 11:47:16;;;;;;;9.95;2.13;;;10.90;68.80;;;;;;4099271;29;20512;-81
2024/01/25 11:49:18;;;;;;;12.32;2.33;;;11.00;69.30;;;;;;4096680;29;20047;-78
2024/01/25 11:51:20;;;;;;;9.38;2.38;;;11.00;68.10;;;;;;4098753;29;20055;-80
2024/01/25 11:53:21;;;;;;;9.38;1.95;;;11.10;68.00;;;;;;4098411;29;20044;-79
2024/01/25 11:55:23;;;;;;;12.05;2.00;;;11.10;67.00;;;;;;4098260;29;20437;-78
2024/01/25 11:57:24;;;;;;;12.35;2.40;;;11.00;66.40;;;;;;4098896;29;20118;-79
2024/01/25 11:59:26;;;;;;;10.80;1.90;;;10.90;65.90;;;;;;4098999;29;20051;-79
2024/01/25 12:01:31;;;;;;;10.90;1.98;;;10.80;66.50;;;;;;4098326;29;20067;-79
2024/01/25 12:03:32;;;;;;;11.20;2.05;;;10.90;67.20;;;;;;4098607;29;20125;-78
2024/01/25 12:05:34;;;;;;;12.05;1.95;;;11.10;67.30;;;;;;4098375;29;20054;-79
2024/01/25 12:07:36;;;;;;;10.02;2.10;;;11.20;66.60;;;;;;4098465;29;20061;-79
2024/01/25 12:09:38;;;;;;;9.80;2.20;;;11.20;66.60;;;;;;4098644;29;20051;-80
2024/01/25 12:11:42;;;;;;;11.10;2.20;;;11.10;65.70;;;;;;4098952;29;20126;-80
2024/01/25 12:13:45;;;;;;;10.13;2.33;;;11.20;66.70;;;;;;4098687;29;20062;-79
2024/01/25 12:15:47;;;;;;;11.13;2.08;;;11.20;66.30;;;;;;4098395;28;20489;-77
2024/01/25 12:17:50;;;;;;;7.85;1.90;;;11.30;65.90;;;;;;4098644;29;20108;-79
2024/01/25 12:19:54;;;;;;;10.43;2.50;;;11.60;66.20;;;;;;4098263;29;20481;-79
2024/01/25 12:21:57;;;;;;;12.77;2.10;;;11.70;66.00;;;;;;4098686;29;20051;-79
2024/01/25 12:23:59;;;;;;;10.73;2.10;;;11.80;65.20;;;;;;4098814;29;20059;-78
2024/01/25 12:26:02;;;;;;;11.35;2.10;;;11.90;65.80;;;;;;4097987;29;20047;-78
2024/01/25 12:28:06;;;;;;;11.98;2.17;;;12.20;65.10;;;;;;4098717;29;20055;-80
2024/01/25 12:30:08;;;;;;;11.10;2.28;;;12.30;63.90;;;;;;4098164;29;20067;-79
2024/01/25 12:32:10;;;;;;;12.32;2.20;;;12.40;64.20;;;;;;4098189;29;20055;-79
2024/01/25 12:34:16;;;;;;;10.05;2.03;;;12.40;64.20;;;;;;4098638;29;20055;-79
2024/01/25 12:36:18;;;;;;;8.77;2.00;;;12.50;64.20;;;;;;4098754;29;20139;-79
2024/01/25 12:38:20;;;;;;;9.85;2.20;;;12.70;63.80;;;;;;4098581;29;20047;-78
2024/01/25 12:40:22;;;;;;;11.75;3.13;;;12.70;62.80;;;;;;4098493;29;20079;-77
2024/01/25 12:42:24;;;;;;;11.75;3.03;;;12.60;62.20;;;;;;4098479;29;20063;-79
2024/01/25 12:44:26;;;;;;;12.35;4.38;;;12.80;63.00;;;;;;4098672;29;20457;-78
2024/01/25 12:46:28;;;;;;;14.07;3.20;;;13.10;62.20;;;;;;4098044;29;20501;-79
2024/01/25 12:48:30;;;;;;;10.88;2.38;;;13.30;61.20;;;;;;4096750;29;20047;-79
2024/01/25 12:50:33;;;;;;;11.98;2.38;;;13.40;61.00;;;;;;4098391;29;20062;-79
2024/01/25 12:52:35;;;;;;;11.35;3.03;;;13.60;60.00;;;;;;4097854;29;20188;-79
2024/01/25 12:54:38;;;;;;;10.13;2.25;;;13.70;59.90;;;;;;4082365;29;20152;-80
2024/01/25 12:56:40;;;;;;;9.40;2.22;;;13.70;59.60;;;;;;4082493;29;20059;-80
2024/01/25 12:58:42;;;;;;;10.75;2.20;;;14.20;59.10;;;;;;4082245;29;20139;-78
2024/01/25 13:00:45;;;;;;;10.77;2.45;;;14.30;58.00;;;;;;4096164;29;20501;-79
2024/01/25 13:02:47;;;;;;;15.07;2.25;;;14.60;57.90;;;;;;4098260;29;20066;-79
2024/01/25 13:04:50;;;;;;;9.20;2.17;;;15.00;57.30;;;;;;4097870;29;20047;-79
2024/01/25 13:06:56;;;;;;;8.25;2.08;;;15.50;56.00;;;;;;4098079;29;20047;-79
2024/01/25 13:08:58;;;;;;;8.57;2.15;;;16.00;54.60;;;;;;4098438;29;20047;-78
2024/01/25 13:10:59;;;;;;;8.85;2.33;;;16.50;52.40;;;;;;4097781;29;20401;-79
2024/01/25 13:13:01;;;;;;;9.32;2.00;;;17.70;51.20;;;;;;4098307;29;20055;-79
2024/01/25 13:15:04;;;;;;;8.68;2.25;;;20.80;45.40;;;;;;4097880;29;20047;-79
2024/01/25 13:17:07;;;;;;;9.70;2.30;;;23.20;40.20;;;;;;4098046;29;20070;-79
2024/01/25 13:19:11;;;;;;;8.25;1.90;;;24.70;37.00;;;;;;4097990;29;20130;-78
2024/01/25 13:21:13;;;;;;;8.27;2.25;;;25.90;34.10;;;;;;4098321;29;20073;-78
2024/01/25 13:23:17;;;;;;;6.85;2.10;;;26.90;32.00;;;;;;4097900;29;20051;-78
2024/01/25 13:25:18;;;;;;;6.90;1.85;;;28.00;30.80;;;;;;4098152;29;20086;-77
2024/01/25 13:27:20;;;;;;;11.32;2.20;;;29.60;28.60;;;;;;4100825;28;20094;-77
2024/01/25 13:29:22;;;;;;;10.02;2.65;;;31.00;27.60;;;;;;4100397;29;20047;-78
2024/01/25 13:31:24;;;;;;;7.88;2.20;;;31.60;26.20;;;;;;4100692;29;20078;-78
2024/01/25 13:33:26;;;;;;;8.20;2.08;;;32.60;25.10;;;;;;4100883;29;20054;-77
2024/01/25 13:35:28;;;;;;;10.30;2.45;;;33.10;24.40;;;;;;4100760;29;20111;-77
2024/01/25 13:37:29;;;;;;;8.98;2.45;;;33.30;24.00;;;;;;4100332;29;20126;-78
2024/01/25 13:39:33;;;;;;;7.88;2.00;;;32.40;23.70;;;;;;4100681;29;20411;-77
2024/01/25 13:41:33;;;;;;;9.25;2.60;;;31.90;24.50;;;;;;4100533;29;20055;-78
2024/01/25 13:43:36;;;;;;;8.65;2.22;;;31.00;24.60;;;;;;4100413;29;20047;-78
2024/01/25 13:45:37;;;;;;;9.07;2.25;;;31.50;24.70;;;;;;4100623;29;20493;-77
2024/01/25 13:47:39;;;;;;;11.10;2.47;;;30.50;24.30;;;;;;4098666;29;20050;-78
2024/01/25 13:49:41;;;;;;;8.82;2.30;;;29.40;25.10;;;;;;4100011;29;20122;-76
2024/01/25 13:51:44;;;;;;;8.93;2.47;;;28.00;26.60;;;;;;4100604;29;20055;-76
2024/01/25 13:53:49;;;;;;;15.63;7.85;;;25.30;28.20;;;;;;4100765;29;20051;-76
2024/01/25 13:55:52;;;;;;;14.53;6.63;;;22.20;31.40;;;;;;4102427;29;20051;-77
2024/01/25 13:57:54;;;;;;;9.73;2.13;;;20.70;35.50;;;;;;4100740;29;20307;-77
2024/01/25 13:59:56;;;;;;;10.52;2.70;;;19.50;39.10;;;;;;4102118;29;20055;-77
2024/01/25 14:01:58;;;;;;;10.75;2.30;;;20.10;39.30;;;;;;4100942;29;20448;-74
2024/01/25 14:04:00;;;;;;;8.50;2.28;;;21.10;36.70;;;;;;4101427;29;20062;-76
2024/01/25 14:06:04;;;;;;;10.25;2.25;;;22.40;35.30;;;;;;4101298;29;20047;-77
2024/01/25 14:08:06;;;;;;;7.88;2.22;;;24.30;32.70;;;;;;4101939;29;20090;-76
2024/01/25 14:10:09;;;;;;;7.68;2.30;;;25.80;30.40;;;;;;4101548;29;20508;-78
2024/01/25 14:12:13;;;;;;;11.05;2.55;;;24.90;29.80;;;;;;4103607;29;20047;-78
2024/01/25 14:14:15;;;;;;;8.50;2.50;;;25.00;30.60;;;;;;4103587;29;20046;-77
2024/01/25 14:16:17;;;;;;;8.55;2.38;;;26.20;29.40;;;;;;4102286;29;20476;-79
2024/01/25 14:18:19;;;;;;;7.28;2.17;;;27.70;27.90;;;;;;4103421;29;20446;-78
2024/01/25 14:20:20;;;;;;;8.25;2.33;;;28.30;27.70;;;;;;4103084;29;20049;-74
2024/01/25 14:22:22;;;;;;;9.73;2.30;;;27.90;26.90;;;;;;4102984;29;20086;-76
2024/01/25 14:24:24;;;;;;;7.50;2.20;;;27.00;27.30;;;;;;4102665;29;20091;-77
2024/01/25 14:26:26;;;;;;;7.43;2.35;;;27.10;28.10;;;;;;4102445;29;20055;-78
2024/01/25 14:28:29;;;;;;;8.07;2.58;;;28.30;27.70;;;;;;4102471;29;20043;-78
2024/01/25 14:30:31;;;;;;;7.95;2.35;;;28.70;27.00;;;;;;4103742;29;20054;-77
2024/01/25 14:32:35;;;;;;;9.25;2.35;;;29.00;26.20;;;;;;4103558;29;20047;-77
2024/01/25 14:34:36;;;;;;;8.23;2.17;;;28.80;26.50;;;;;;4102333;29;20053;-77
2024/01/25 14:36:41;;;;;;;7.93;1.75;;;27.50;27.40;;;;;;4102479;29;20444;-77
2024/01/25 14:38:42;;;;;;;8.27;2.25;;;25.10;29.40;;;;;;4101437;28;20051;-76
2024/01/25 14:40:44;;;;;;;9.88;2.33;;;23.10;32.40;;;;;;4102573;29;20078;-78
2024/01/25 14:42:46;;;;;;;9.68;2.58;;;21.20;36.20;;;;;;4102069;29;20091;-77
2024/01/25 14:44:49;;;;;;;9.63;2.35;;;19.90;39.90;;;;;;4102480;29;20456;-76
2024/01/25 14:46:51;;;;;;;9.18;2.88;;;18.90;41.80;;;;;;4102458;29;20081;-77
2024/01/25 14:48:53;;;;;;;10.35;2.50;;;18.40;43.60;;;;;;4101842;29;20110;-78
2024/01/25 14:50:54;;;;;;;8.45;2.38;;;17.70;45.30;;;;;;4102281;29;20468;-76
2024/01/25 14:52:56;;;;;;;10.15;2.60;;;17.50;46.10;;;;;;4102509;29;20069;-78
2024/01/25 14:54:58;;;;;;;11.85;2.40;;;17.20;46.80;;;;;;4102058;29;20098;-76
2024/01/25 14:57:00;;;;;;;12.13;3.40;;;16.80;47.60;;;;;;4102387;29;20051;-77
2024/01/25 14:59:02;;;;;;;10.15;2.35;;;16.80;47.90;;;;;;4102565;29;20055;-77
2024/01/25 15:01:05;;;;;;;11.93;2.97;;;16.40;48.70;;;;;;4101485;29;20059;-77
2024/01/25 15:03:07;;;;;;;9.07;2.20;;;16.20;49.40;;;;;;4102461;29;20118;-76
2024/01/25 15:05:09;;;;;;;12.73;3.08;;;15.70;51.30;;;;;;4102482;29;20083;-77
2024/01/25 15:07:12;;;;;;;8.48;2.45;;;15.50;51.20;;;;;;4101483;29;20062;-77
2024/01/25 15:09:14;;;;;;;9.52;2.25;;;15.00;52.50;;;;;;4101672;29;20047;-83
2024/01/25 15:11:16;;;;;;;9.68;2.45;;;14.90;53.10;;;;;;4082630;29;20056;-79
2024/01/25 15:13:18;;;;;;;8.75;2.00;;;14.70;53.70;;;;;;4099336;29;20051;-79
2024/01/25 15:15:19;;;;;;;10.23;2.05;;;14.60;54.00;;;;;;4099930;29;20054;-79
2024/01/25 15:17:22;;;;;;;9.73;2.28;;;14.40;54.50;;;;;;4100148;29;20130;-78
2024/01/25 15:19:24;;;;;;;9.68;2.03;;;14.20;55.60;;;;;;4099163;29;20054;-78
2024/01/25 15:21:26;;;;;;;8.13;1.90;;;14.00;56.00;;;;;;4099738;29;20051;-79
2024/01/25 15:23:29;;;;;;;9.52;2.15;;;13.90;56.50;;;;;;4099600;29;20408;-80
2024/01/25 15:25:30;;;;;;;9.13;2.22;;;13.90;56.50;;;;;;4098722;29;20128;-76
2024/01/25 15:27:32;;;;;;;8.35;1.85;;;13.90;56.70;;;;;;4084150;29;20084;-75
2024/01/25 15:29:33;;;;;;;8.98;2.40;;;13.80;57.00;;;;;;4094387;29;20047;-77
2024/01/25 15:31:35;;;;;;;9.80;3.10;;;13.70;57.30;;;;;;4099493;29;20118;-79
2024/01/25 15:33:38;;;;;;;9.70;2.60;;;13.70;57.70;;;;;;4099661;29;20390;-82
2024/01/25 15:35:40;;;;;;;9.30;2.28;;;13.60;57.90;;;;;;4099752;29;20173;-78
2024/01/25 15:37:42;;;;;;;8.40;1.75;;;13.50;58.40;;;;;;4099367;29;20125;-79
2024/01/25 15:39:44;;;;;;;6.63;1.63;;;13.40;58.60;;;;;;4099576;29;20055;-78
2024/01/25 15:41:49;;;;;;;9.70;1.98;;;13.30;59.60;;;;;;4099781;29;20050;-79
2024/01/25 15:43:51;;;;;;;9.23;2.15;;;13.20;59.50;;;;;;4099559;29;20113;-80
2024/01/25 15:45:53;;;;;;;7.80;1.75;;;13.00;60.30;;;;;;4099207;29;20087;-79
2024/01/25 15:47:55;;;;;;;8.50;2.03;;;12.80;61.40;;;;;;4100241;29;20058;-82
2024/01/25 15:49:58;;;;;;;11.52;5.05;;;12.90;61.60;;;;;;4101588;28;20055;-80
2024/01/25 15:52:00;;;;;;;9.32;2.33;;;12.80;61.90;;;;;;4097517;29;20463;-79
2024/01/25 15:54:02;;;;;;;7.47;2.30;;;12.80;62.20;;;;;;4099998;29;20047;-78
2024/01/25 15:56:05;;;;;;;7.57;2.00;;;12.80;62.30;;;;;;4099882;29;20051;-80
2024/01/25 15:58:07;;;;;;;8.77;1.90;;;12.70;62.90;;;;;;4098680;29;20113;-80
2024/01/25 16:00:09;;;;;;;8.15;1.83;;;12.70;62.90;;;;;;4099596;29;20077;-79
2024/01/25 16:02:11;;;;;;;10.05;1.90;;;12.70;63.10;;;;;;4099070;29;20059;-81
2024/01/25 16:04:13;;;;;;;5.75;1.70;;;12.60;63.40;;;;;;4099035;29;20543;-82
2024/01/25 16:06:16;;;;;;;7.53;1.63;;;12.60;63.80;;;;;;4099253;29;20139;-80
2024/01/25 16:08:18;;;;;;;9.90;2.00;;;12.50;64.50;;;;;;4099388;29;20067;-80
2024/01/25 16:10:20;;;;;;;9.07;1.90;;;12.40;65.00;;;;;;4098578;29;20058;-79
2024/01/25 16:12:23;;;;;;;7.80;1.70;;;12.40;65.20;;;;;;4083761;29;20147;-78
2024/01/25 16:14:25;;;;;;;7.18;1.77;;;12.30;66.00;;;;;;4096701;29;20441;-79
2024/01/25 16:16:27;;;;;;;6.13;1.60;;;12.20;66.90;;;;;;4098990;29;20051;-81
2024/01/25 16:18:30;;;;;;;6.13;1.50;;;12.10;67.30;;;;;;4100051;29;20501;-82
2024/01/25 16:20:32;;;;;;;6.20;1.60;;;12.10;67.70;;;;;;4100235;29;20140;-82
2024/01/25 16:22:37;;;;;;;6.57;1.67;;;12.10;68.70;;;;;;4099335;29;20082;-80
2024/01/25 16:24:39;;;;;;;8.13;1.80;;;12.00;68.20;;;;;;4083457;29;20082;-81
2024/01/25 16:26:41;;;;;;;6.22;1.77;;;12.00;68.30;;;;;;4086219;29;20056;-82
2024/01/25 16:28:43;;;;;;;5.18;1.30;;;11.90;68.80;;;;;;4103991;29;20445;-82
2024/01/25 16:30:45;;;;;;;7.03;1.98;;;11.90;69.10;;;;;;4099409;29;20058;-82
2024/01/25 16:32:48;;;;;;;6.85;2.00;;;11.80;70.00;;;;;;4099563;29;20043;-83
2024/01/25 16:34:50;;;;;;;6.75;1.58;;;11.70;70.60;;;;;;4099334;29;20138;-82
2024/01/25 16:36:51;;;;;;;6.07;1.63;;;11.70;71.40;;;;;;4099019;29;20051;-81